Time;durP1;ratioP1;P1;durP2;ratioP2;P2;SDS_P1;SDS_P2;PMS_P1;PMS_P2;Temp;Humidity;BMP_temperature;BMP_pressure;BME280_temperature;BME280_humidity;BME280_pressure;Samples;Min_cycle;Max_cycle;Signal;HPM_P1;HPM_P2
2022/09/28 00:01:43;;;;;;;;;;;;;;;17.70;44.37;97785.41;4469830;32;33650;-83
2022/09/28 00:04:11;;;;;;;;;;;;;;;17.86;44.28;97777.84;4468228;32;34984;-83
2022/09/28 00:06:38;;;;;;;;;;;;;;;17.69;44.01;97780.22;4466489;32;34063;-82
2022/09/28 00:09:06;;;;;;;;;;;;;;;16.41;45.75;97781.22;4453493;32;35036;-83
2022/09/28 00:11:33;;;;;;;;;;;;;;;17.98;43.29;97772.12;4467715;32;34572;-83
2022/09/28 00:14:02;;;;;;;;;;;;;;;18.58;42.31;97776.72;4467525;32;34011;-83
2022/09/28 00:16:30;;;;;;;;;;;;;;;19.00;41.97;97770.59;4453086;32;35366;-82
2022/09/28 00:18:59;;;;;;;;;;;;;;;18.99;42.22;97761.00;4467466;32;34635;-83
2022/09/28 00:21:27;;;;;;;;;;;;;;;19.14;42.14;97755.09;4466990;32;34525;-83
2022/09/28 00:24:14;;;;;;;;;;;;;;;19.28;41.61;97757.06;4466743;32;33989;-82
2022/09/28 00:26:55;;;;;;;;;;;;;;;19.13;41.81;97769.13;4457231;32;34030;-82
2022/09/28 00:29:27;;;;;;;;;;;;;;;18.42;43.42;97777.34;4467224;32;34461;-83
2022/09/28 00:32:02;;;;;;;;;;;;;;;17.96;43.79;97773.09;4453569;32;34377;-82
2022/09/28 00:34:30;;;;;;;;;;;;;;;17.69;43.80;97769.72;4467109;32;34283;-81
2022/09/28 00:36:58;;;;;;;;;;;;;;;17.45;44.43;97766.28;4466775;32;34370;-83
2022/09/28 00:39:26;;;;;;;;;;;;;;;17.91;43.59;97769.78;4467523;32;33923;-87
2022/09/28 00:41:53;;;;;;;;;;;;;;;17.67;44.12;97768.94;4467227;32;32933;-89
2022/09/28 00:44:32;;;;;;;;;;;;;;;17.44;44.93;97772.44;4467646;32;33906;-83
2022/09/28 00:47:00;;;;;;;;;;;;;;;17.89;42.92;97772.50;4469860;32;34868;-82
2022/09/28 00:49:31;;;;;;;;;;;;;;;16.64;45.02;97777.84;4480733;32;34602;-83
2022/09/28 00:51:59;;;;;;;;;;;;;;;16.41;45.69;97769.91;4482609;32;33220;-83
2022/09/28 00:54:26;;;;;;;;;;;;;;;16.41;44.92;97765.53;4482792;32;34924;-90
2022/09/28 00:56:53;;;;;;;;;;;;;;;15.54;46.44;97771.69;4455193;32;34880;-82
2022/09/28 00:59:23;;;;;;;;;;;;;;;16.58;45.14;97772.81;4453769;32;34150;-82
2022/09/28 01:01:50;;;;;;;;;;;;;;;16.50;45.26;97775.69;4453431;32;33812;-82
2022/09/28 01:04:18;;;;;;;;;;;;;;;17.29;43.99;97773.84;4467558;32;34971;-82
2022/09/28 01:06:45;;;;;;;;;;;;;;;16.87;45.10;97779.72;4476285;32;34028;-82
2022/09/28 01:09:13;;;;;;;;;;;;;;;16.90;43.62;97774.38;4482369;32;34080;-82
2022/09/28 01:11:41;;;;;;;;;;;;;;;17.40;42.20;97774.31;4474484;32;33687;-82
2022/09/28 01:14:10;;;;;;;;;;;;;;;17.16;42.72;97773.44;4453300;32;33965;-82
2022/09/28 01:16:53;;;;;;;;;;;;;;;17.26;43.64;97774.81;4460737;32;34478;-82
2022/09/28 01:19:25;;;;;;;;;;;;;;;16.24;45.24;97787.00;4465371;32;35373;-89
2022/09/28 01:21:53;;;;;;;;;;;;;;;17.02;44.64;97784.41;4470090;32;33964;-84
2022/09/28 01:24:32;;;;;;;;;;;;;;;16.02;46.20;97789.47;4453233;32;34313;-82
2022/09/28 01:27:01;;;;;;;;;;;;;;;17.40;43.83;97787.41;4461836;32;34392;-82
2022/09/28 01:29:32;;;;;;;;;;;;;;;17.31;44.27;97781.63;4459945;32;34195;-82
2022/09/28 01:32:12;;;;;;;;;;;;;;;17.17;44.46;97780.38;4468482;32;34045;-82
2022/09/28 01:34:59;;;;;;;;;;;;;;;17.77;43.79;97783.44;4451613;32;34159;-82
2022/09/28 01:37:29;;;;;;;;;;;;;;;17.38;44.15;97785.75;4453793;32;34242;-83
2022/09/28 01:39:56;;;;;;;;;;;;;;;17.24;43.27;97791.50;4461627;32;34937;-82
2022/09/28 01:42:25;;;;;;;;;;;;;;;16.05;45.91;97798.94;4466855;32;33334;-83
2022/09/28 01:44:53;;;;;;;;;;;;;;;15.96;46.40;97799.25;4465336;32;34122;-83
2022/09/28 01:47:21;;;;;;;;;;;;;;;16.48;44.67;97803.69;4452507;32;35877;-83
2022/09/28 01:49:59;;;;;;;;;;;;;;;17.16;43.55;97798.75;4461218;32;34912;-82
2022/09/28 01:52:34;;;;;;;;;;;;;;;16.63;45.24;97804.03;4467035;32;33706;-83
2022/09/28 01:55:02;;;;;;;;;;;;;;;17.57;42.51;97796.41;4460050;32;34001;-83
2022/09/28 01:57:36;;;;;;;;;;;;;;;17.16;43.60;97790.91;4457528;32;35073;-83
2022/09/28 02:00:05;;;;;;;;;;;;;;;16.85;44.14;97791.13;4461711;32;34309;-82
2022/09/28 02:02:47;;;;;;;;;;;;;;;17.09;43.55;97790.28;4467825;32;33359;-82
2022/09/28 02:05:39;;;;;;;;;;;;;;;16.33;45.39;97800.66;4478522;32;34175;-83
2022/09/28 02:08:14;;;;;;;;;;;;;;;16.80;45.13;97798.28;4471833;32;34452;-83
2022/09/28 02:10:49;;;;;;;;;;;;;;;17.21;43.68;97795.09;4477594;32;35019;-83
2022/09/28 02:13:16;;;;;;;;;;;;;;;16.80;44.61;97801.75;4452599;32;34417;-83
2022/09/28 02:15:44;;;;;;;;;;;;;;;17.39;43.81;97796.19;4469622;32;33760;-83
2022/09/28 02:18:11;;;;;;;;;;;;;;;17.52;43.63;97794.81;4478190;32;34395;-83
2022/09/28 02:20:39;;;;;;;;;;;;;;;17.17;42.98;97796.09;4473244;31;34347;-83
2022/09/28 02:23:06;;;;;;;;;;;;;;;17.05;44.78;97793.94;4466241;32;33951;-83
2022/09/28 02:25:37;;;;;;;;;;;;;;;16.00;44.22;97806.94;4456668;32;33397;-83
2022/09/28 02:28:05;;;;;;;;;;;;;;;16.54;43.00;97793.00;4461109;32;34266;-83
2022/09/28 02:30:35;;;;;;;;;;;;;;;16.24;45.43;97796.59;4467061;32;34005;-83
2022/09/28 02:33:04;;;;;;;;;;;;;;;16.46;45.44;97799.38;4471271;32;33403;-83
2022/09/28 02:35:34;;;;;;;;;;;;;;;16.99;43.02;97797.59;4460270;32;35056;-83
2022/09/28 02:38:03;;;;;;;;;;;;;;;16.91;44.28;97802.25;4463801;32;34363;-83
2022/09/28 02:40:31;;;;;;;;;;;;;;;16.96;41.95;97805.56;4469560;32;35359;-82
2022/09/28 02:42:58;;;;;;;;;;;;;;;16.07;43.90;97805.00;4460390;32;33446;-86
2022/09/28 02:45:33;;;;;;;;;;;;;;;16.61;44.40;97808.50;4477978;32;33526;-83
2022/09/28 02:48:06;;;;;;;;;;;;;;;17.00;44.15;97796.69;4463763;32;34482;-85
2022/09/28 02:50:38;;;;;;;;;;;;;;;17.41;42.93;97810.06;4483068;32;34261;-83
2022/09/28 02:53:05;;;;;;;;;;;;;;;17.54;43.18;97805.25;4456694;32;33762;-83
2022/09/28 02:55:38;;;;;;;;;;;;;;;17.84;42.01;97819.00;4472517;31;35055;-83
2022/09/28 02:58:08;;;;;;;;;;;;;;;18.12;42.36;97824.03;4473441;32;34409;-84
2022/09/28 03:01:08;;;;;;;;;;;;;;;17.70;43.53;97822.09;4468107;32;35289;-88
2022/09/28 03:03:40;;;;;;;;;;;;;;;18.42;42.16;97827.22;4447506;31;34302;-88
2022/09/28 03:06:14;;;;;;;;;;;;;;;18.86;41.75;97839.44;4461456;32;33922;-84
2022/09/28 03:08:44;;;;;;;;;;;;;;;18.78;41.95;97844.16;4456259;32;35432;-83
2022/09/28 03:11:13;;;;;;;;;;;;;;;19.06;41.50;97849.13;4456575;32;35297;-83
2022/09/28 03:13:41;;;;;;;;;;;;;;;18.80;42.10;97852.84;4469397;32;34370;-83
2022/09/28 03:16:14;;;;;;;;;;;;;;;18.61;41.84;97850.09;4468474;32;34618;-83
2022/09/28 03:18:42;;;;;;;;;;;;;;;18.90;41.45;97841.03;4468287;32;34286;-82
2022/09/28 03:21:10;;;;;;;;;;;;;;;19.01;41.30;97853.72;4454202;32;34194;-84
2022/09/28 03:23:37;;;;;;;;;;;;;;;19.09;40.94;97849.88;4461391;32;33719;-84
2022/09/28 03:26:06;;;;;;;;;;;;;;;19.11;40.96;97852.41;4468552;32;34965;-83
2022/09/28 03:28:35;;;;;;;;;;;;;;;19.29;40.62;97851.63;4468149;32;34247;-83
2022/09/28 03:31:02;;;;;;;;;;;;;;;19.09;41.07;97851.59;4453929;32;32806;-83
2022/09/28 03:33:29;;;;;;;;;;;;;;;19.13;41.01;97846.19;4468080;32;33850;-83
2022/09/28 03:35:57;;;;;;;;;;;;;;;18.97;41.28;97839.84;4476988;32;33781;-83
2022/09/28 03:38:25;;;;;;;;;;;;;;;19.29;40.85;97845.53;4472918;32;34288;-83
2022/09/28 03:40:57;;;;;;;;;;;;;;;18.94;41.36;97846.09;4468613;32;35859;-83
2022/09/28 03:43:25;;;;;;;;;;;;;;;19.20;41.00;97846.75;4463583;32;33082;-83
2022/09/28 03:45:54;;;;;;;;;;;;;;;19.26;40.87;97849.13;4471172;32;34869;-83
2022/09/28 03:48:24;;;;;;;;;;;;;;;19.28;40.74;97856.94;4467964;32;35169;-83
2022/09/28 03:50:59;;;;;;;;;;;;;;;18.57;41.86;97853.75;4456304;32;35004;-83
2022/09/28 03:53:27;;;;;;;;;;;;;;;18.55;42.05;97853.81;4468053;32;34359;-83
2022/09/28 03:55:55;;;;;;;;;;;;;;;18.87;41.55;97855.16;4467448;32;33960;-83
2022/09/28 03:58:22;;;;;;;;;;;;;;;18.78;41.88;97847.66;4466968;32;34792;-83
2022/09/28 04:00:50;;;;;;;;;;;;;;;19.05;41.36;97845.63;4471856;32;35388;-81
2022/09/28 04:03:20;;;;;;;;;;;;;;;18.95;41.25;97847.81;4480013;32;34658;-83
2022/09/28 04:05:50;;;;;;;;;;;;;;;18.48;40.82;97840.06;4468761;32;32929;-84
2022/09/28 04:08:18;;;;;;;;;;;;;;;17.58;42.70;97840.03;4468925;32;35348;-83
2022/09/28 04:10:45;;;;;;;;;;;;;;;18.13;41.70;97833.59;4468384;32;34571;-84
2022/09/28 04:13:12;;;;;;;;;;;;;;;16.96;43.69;97842.22;4464598;32;34573;-89
2022/09/28 04:15:40;;;;;;;;;;;;;;;16.95;43.59;97842.28;4481789;32;34903;-83
2022/09/28 04:18:10;;;;;;;;;;;;;;;17.20;43.76;97840.53;4472934;32;34475;-90
2022/09/28 04:20:44;;;;;;;;;;;;;;;17.67;42.84;97847.56;4463742;32;33961;-85
2022/09/28 04:23:14;;;;;;;;;;;;;;;17.45;43.48;97844.87;4470521;32;33419;-82
2022/09/28 04:25:46;;;;;;;;;;;;;;;17.01;43.83;97839.47;4477272;32;34632;-90
2022/09/28 04:31:00;;;;;;;;;;;;;;;15.68;46.98;97836.66;4461513;32;34776;-88
2022/09/28 04:33:27;;;;;;;;;;;;;;;15.66;46.66;97842.81;4483063;32;33744;-84
2022/09/28 04:35:55;;;;;;;;;;;;;;;16.20;45.42;97834.22;4473250;32;34943;-84
2022/09/28 04:38:22;;;;;;;;;;;;;;;17.11;44.06;97839.97;4468127;32;34182;-84
2022/09/28 04:41:11;;;;;;;;;;;;;;;17.79;42.74;97847.16;4470258;32;34122;-84
2022/09/28 04:43:38;;;;;;;;;;;;;;;17.96;42.59;97847.38;4467403;32;34269;-85
2022/09/28 04:46:06;;;;;;;;;;;;;;;18.08;42.05;97853.06;4456626;32;33714;-82
2022/09/28 04:48:36;;;;;;;;;;;;;;;18.20;41.77;97839.47;4482790;32;32963;-82
2022/09/28 04:51:03;;;;;;;;;;;;;;;17.66;42.51;97843.25;4462402;32;34316;-83
2022/09/28 04:53:30;;;;;;;;;;;;;;;17.42;42.84;97839.75;4474546;32;33590;-83
2022/09/28 04:55:58;;;;;;;;;;;;;;;17.90;42.21;97836.25;4474080;31;35024;-82
2022/09/28 04:58:26;;;;;;;;;;;;;;;18.31;41.74;97833.81;4464616;32;34795;-83
2022/09/28 05:00:55;;;;;;;;;;;;;;;18.55;41.46;97834.59;4478541;32;34680;-89
2022/09/28 05:03:25;;;;;;;;;;;;;;;18.47;41.56;97840.12;4472352;32;32835;-82
2022/09/28 05:05:53;;;;;;;;;;;;;;;18.50;41.36;97847.03;4447215;32;802844;-84
2022/09/28 05:08:20;;;;;;;;;;;;;;;18.46;41.19;97849.78;4468705;32;34868;-83
2022/09/28 05:10:48;;;;;;;;;;;;;;;18.48;41.06;97847.09;4478269;32;34438;-86
2022/09/28 05:13:17;;;;;;;;;;;;;;;18.50;41.14;97854.91;4467316;32;34514;-93
2022/09/28 05:15:44;;;;;;;;;;;;;;;18.55;40.75;97855.56;4467954;32;34420;-84
2022/09/28 05:18:13;;;;;;;;;;;;;;;18.64;40.62;97852.59;4479677;32;34389;-83
2022/09/28 05:20:40;;;;;;;;;;;;;;;18.65;40.35;97846.44;4483038;32;34147;-83
2022/09/28 05:23:08;;;;;;;;;;;;;;;18.55;40.47;97852.94;4482692;31;33487;-86
2022/09/28 05:25:36;;;;;;;;;;;;;;;18.61;40.30;97857.97;4482778;31;33838;-88
2022/09/28 05:28:04;;;;;;;;;;;;;;;18.71;39.95;97864.56;4472041;32;34063;-85
2022/09/28 05:30:35;;;;;;;;;;;;;;;18.84;39.76;97863.16;4467393;32;34430;-84
2022/09/28 05:33:03;;;;;;;;;;;;;;;18.57;39.93;97862.47;4467371;32;33074;-84
2022/09/28 05:35:31;;;;;;;;;;;;;;;18.50;40.29;97857.53;4467106;32;34858;-84
2022/09/28 05:38:03;;;;;;;;;;;;;;;18.39;40.65;97861.44;4475772;32;34208;-86
2022/09/28 05:40:30;;;;;;;;;;;;;;;18.70;40.13;97861.09;4474253;32;35244;-88
2022/09/28 05:42:59;;;;;;;;;;;;;;;18.58;40.95;97856.31;4466841;32;34240;-84
2022/09/28 05:45:27;;;;;;;;;;;;;;;18.61;40.99;97865.84;4472118;32;34169;-84
2022/09/28 05:47:55;;;;;;;;;;;;;;;18.98;40.66;97862.59;4482642;31;35050;-84
2022/09/28 05:50:22;;;;;;;;;;;;;;;18.60;41.25;97853.59;4482640;31;34107;-89
2022/09/28 05:53:00;;;;;;;;;;;;;;;18.61;41.38;97852.72;4468201;32;34089;-84
2022/09/28 05:55:27;;;;;;;;;;;;;;;18.55;41.74;97855.56;4482536;32;34016;-84
2022/09/28 05:57:58;;;;;;;;;;;;;;;18.52;41.35;97853.06;4468228;32;34278;-89
2022/09/28 06:00:26;;;;;;;;;;;;;;;18.60;40.64;97853.59;4482711;32;34230;-84
2022/09/28 06:03:04;;;;;;;;;;;;;;;18.47;41.38;97859.34;4482731;32;34513;-83
2022/09/28 06:05:35;;;;;;;;;;;;;;;17.91;41.66;97865.03;4482435;32;33964;-83
2022/09/28 06:08:04;;;;;;;;;;;;;;;18.22;42.09;97867.37;4467881;32;34045;-84
2022/09/28 06:10:32;;;;;;;;;;;;;;;18.31;41.52;97862.66;4466622;32;34585;-86
2022/09/28 06:13:00;;;;;;;;;;;;;;;18.12;42.93;97863.38;4466862;32;33315;-84
2022/09/28 06:15:28;;;;;;;;;;;;;;;18.34;42.93;97860.78;4469104;32;33706;-84
2022/09/28 06:17:56;;;;;;;;;;;;;;;18.51;42.86;97860.09;4472929;32;34385;-88
2022/09/28 06:20:25;;;;;;;;;;;;;;;18.54;42.44;97862.59;4467061;32;35424;-84
2022/09/28 06:22:53;;;;;;;;;;;;;;;18.79;42.10;97862.50;4454733;32;33401;-85
2022/09/28 06:25:21;;;;;;;;;;;;;;;18.84;42.34;97863.16;4468189;32;33963;-84
2022/09/28 06:27:55;;;;;;;;;;;;;;;18.43;42.84;97863.03;4467827;32;34835;-86
2022/09/28 06:30:25;;;;;;;;;;;;;;;18.65;41.56;97870.06;4467850;32;34141;-87
2022/09/28 06:32:53;;;;;;;;;;;;;;;18.11;43.19;97873.94;4474579;32;33518;-85
2022/09/28 06:35:21;;;;;;;;;;;;;;;18.12;40.34;97868.63;4484081;32;34442;-85
2022/09/28 06:37:50;;;;;;;;;;;;;;;17.53;42.33;97871.66;4484134;31;34318;-87
2022/09/28 06:40:17;;;;;;;;;;;;;;;17.79;41.99;97869.88;4483940;31;34030;-86
2022/09/28 06:43:01;;;;;;;;;;;;;;;17.82;42.36;97875.88;4484357;31;33532;-85
2022/09/28 06:45:29;;;;;;;;;;;;;;;18.21;42.80;97883.13;4483744;32;33734;-86
2022/09/28 06:47:59;;;;;;;;;;;;;;;18.23;43.32;97870.84;4479378;32;34774;-85
2022/09/28 06:50:31;;;;;;;;;;;;;;;18.30;42.62;97869.69;4468281;32;35138;-86
2022/09/28 06:53:01;;;;;;;;;;;;;;;18.52;43.22;97874.91;4468458;32;32880;-84
2022/09/28 06:55:29;;;;;;;;;;;;;;;17.13;43.95;97875.69;4468717;32;34141;-90
2022/09/28 06:57:57;;;;;;;;;;;;;;;18.24;43.95;97877.78;4468811;32;33860;-89
2022/09/28 07:00:26;;;;;;;;;;;;;;;18.48;41.81;97874.19;4468851;32;34160;-84
2022/09/28 07:02:53;;;;;;;;;;;;;;;18.39;41.79;97873.72;4473394;32;33774;-87
2022/09/28 07:05:25;;;;;;;;;;;;;;;18.89;40.36;97874.31;4468284;32;34845;-85
2022/09/28 07:07:54;;;;;;;;;;;;;;;18.96;39.70;97873.16;4468310;32;34231;-86
2022/09/28 07:10:26;;;;;;;;;;;;;;;18.64;39.77;97871.81;4468296;32;34090;-87
2022/09/28 07:12:55;;;;;;;;;;;;;;;19.07;39.75;97879.72;4468049;32;33630;-85
2022/09/28 07:15:24;;;;;;;;;;;;;;;19.18;41.99;97877.50;4468502;32;34038;-89
2022/09/28 07:17:57;;;;;;;;;;;;;;;19.10;41.59;97874.34;4468164;32;34186;-87
2022/09/28 07:20:31;;;;;;;;;;;;;;;18.13;39.23;97869.47;4468205;32;34170;-89
2022/09/28 07:23:04;;;;;;;;;;;;;;;18.52;39.81;97860.94;4468206;32;34194;-85
2022/09/28 07:25:46;;;;;;;;;;;;;;;18.39;42.26;97868.47;4468283;32;34294;-86
2022/09/28 07:28:17;;;;;;;;;;;;;;;19.18;38.81;97861.75;4468064;32;34849;-88
2022/09/28 07:30:46;;;;;;;;;;;;;;;19.22;40.94;97873.81;4468225;32;34410;-89
2022/09/28 07:33:14;;;;;;;;;;;;;;;18.32;41.90;97859.13;4467423;32;33401;-88
2022/09/28 07:35:49;;;;;;;;;;;;;;;19.02;39.70;97858.91;4468141;32;33641;-85
2022/09/28 07:38:17;;;;;;;;;;;;;;;19.22;41.03;97860.69;4467972;32;35404;-89
2022/09/28 07:43:31;;;;;;;;;;;;;;;19.59;40.67;97861.72;4468270;32;33068;-90
2022/09/28 07:45:58;;;;;;;;;;;;;;;19.61;40.78;97865.13;4468069;32;33738;-85
2022/09/28 07:48:25;;;;;;;;;;;;;;;19.61;40.38;97868.59;4468287;32;35157;-88
2022/09/28 07:50:54;;;;;;;;;;;;;;;19.38;41.50;97874.87;4467829;32;33880;-87
2022/09/28 07:53:23;;;;;;;;;;;;;;;18.92;42.61;97882.06;4468023;32;34053;-86
2022/09/28 07:55:51;;;;;;;;;;;;;;;19.93;40.40;97875.09;4468213;32;33333;-86
2022/09/28 07:58:20;;;;;;;;;;;;;;;20.05;40.28;97867.56;4468231;32;34222;-85
2022/09/28 08:00:48;;;;;;;;;;;;;;;20.00;40.65;97874.78;4468105;32;34212;-90
2022/09/28 08:03:16;;;;;;;;;;;;;;;19.81;41.05;97873.03;4467793;32;34261;-88
2022/09/28 08:05:44;;;;;;;;;;;;;;;20.13;40.92;97882.06;4467844;32;34885;-89
2022/09/28 08:08:12;;;;;;;;;;;;;;;20.21;40.02;97870.31;4467858;32;34145;-85
2022/09/28 08:10:42;;;;;;;;;;;;;;;20.75;38.56;97863.34;4467886;32;34428;-88
2022/09/28 08:13:15;;;;;;;;;;;;;;;20.81;38.84;97856.00;4468108;32;34397;-89
2022/09/28 08:15:49;;;;;;;;;;;;;;;20.65;38.96;97853.28;4467819;32;34068;-90
2022/09/28 08:18:17;;;;;;;;;;;;;;;21.23;38.13;97841.59;4468114;32;34051;-86
2022/09/28 08:23:31;;;;;;;;;;;;;;;20.13;39.84;97836.47;4468093;32;33866;-87
2022/09/28 08:25:59;;;;;;;;;;;;;;;20.65;39.04;97836.63;4467937;32;34195;-89
2022/09/28 08:28:26;;;;;;;;;;;;;;;20.60;39.70;97834.19;4467872;32;35198;-89
2022/09/28 08:30:54;;;;;;;;;;;;;;;21.14;38.49;97834.19;4467987;32;34295;-86
2022/09/28 08:33:23;;;;;;;;;;;;;;;21.19;38.33;97834.78;4453930;32;33046;-87
2022/09/28 08:36:04;;;;;;;;;;;;;;;20.70;39.44;97846.94;4467594;32;34288;-84
2022/09/28 08:38:32;;;;;;;;;;;;;;;20.67;39.64;97852.34;4467944;32;34868;-87
2022/09/28 08:41:19;;;;;;;;;;;;;;;21.33;39.00;97858.69;4467879;32;34381;-85
2022/09/28 08:44:02;;;;;;;;;;;;;;;21.01;38.79;97852.37;4467479;32;33626;-86
2022/09/28 08:46:50;;;;;;;;;;;;;;;20.64;39.16;97854.19;4453566;32;33936;-86
2022/09/28 08:49:20;;;;;;;;;;;;;;;21.41;38.70;97857.44;4457057;32;34128;-83
2022/09/28 08:52:05;;;;;;;;;;;;;;;20.92;39.71;97866.03;4454128;32;33889;-86
2022/09/28 08:54:35;;;;;;;;;;;;;;;20.26;40.27;97866.53;4453124;32;33233;-84
2022/09/28 08:57:12;;;;;;;;;;;;;;;20.32;40.33;97855.72;4453450;32;34999;-84
2022/09/28 08:59:42;;;;;;;;;;;;;;;19.67;41.73;97849.13;4467448;32;33987;-83
2022/09/28 09:02:14;;;;;;;;;;;;;;;20.87;40.49;97844.31;4467710;32;34464;-86
2022/09/28 09:04:41;;;;;;;;;;;;;;;21.00;41.44;97847.19;4467115;32;34295;-84
2022/09/28 09:07:27;;;;;;;;;;;;;;;20.56;40.37;97847.59;4467636;32;33713;-85
2022/09/28 09:10:13;;;;;;;;;;;;;;;20.40;41.25;97837.78;4467316;32;34467;-83
2022/09/28 09:12:57;;;;;;;;;;;;;;;20.77;41.59;97853.59;4453732;32;34571;-85
2022/09/28 09:15:25;;;;;;;;;;;;;;;21.17;38.94;97841.91;4453557;32;33331;-85
2022/09/28 09:17:52;;;;;;;;;;;;;;;21.22;40.32;97839.06;4467428;32;34226;-83
2022/09/28 09:20:24;;;;;;;;;;;;;;;20.37;40.76;97827.41;4467429;32;34652;-87
2022/09/28 09:22:56;;;;;;;;;;;;;;;20.68;40.56;97830.34;4453635;32;34265;-85
2022/09/28 09:25:23;;;;;;;;;;;;;;;20.57;40.86;97833.50;4467069;32;34003;-84
2022/09/28 09:28:10;;;;;;;;;;;;;;;20.59;41.91;97836.91;4467696;32;34321;-89
2022/09/28 09:30:42;;;;;;;;;;;;;;;20.41;41.36;97834.22;4467072;32;34319;-84
2022/09/28 09:33:28;;;;;;;;;;;;;;;20.80;39.31;97824.50;4467201;32;34140;-86
2022/09/28 09:35:57;;;;;;;;;;;;;;;20.09;40.64;97829.66;4466844;32;33623;-84
2022/09/28 09:38:39;;;;;;;;;;;;;;;20.40;41.20;97834.31;4467261;32;34922;-84
2022/09/28 09:41:24;;;;;;;;;;;;;;;20.16;41.50;97831.06;4453265;32;34354;-85
2022/09/28 09:43:58;;;;;;;;;;;;;;;20.79;41.23;97841.19;4467262;32;34280;-86
2022/09/28 09:46:41;;;;;;;;;;;;;;;20.58;41.84;97837.84;4466929;32;33431;-84
2022/09/28 09:49:22;;;;;;;;;;;;;;;21.03;41.92;97825.97;4467247;32;34263;-85
2022/09/28 09:51:50;;;;;;;;;;;;;;;20.51;42.76;97831.19;4452584;32;34285;-84
2022/09/28 09:54:20;;;;;;;;;;;;;;;20.69;41.30;97834.72;4466942;32;34509;-88
2022/09/28 09:56:49;;;;;;;;;;;;;;;21.22;40.41;97829.34;4454378;32;34127;-84
2022/09/28 09:59:18;;;;;;;;;;;;;;;20.96;40.50;97827.19;4454860;32;33447;-85
2022/09/28 10:01:47;;;;;;;;;;;;;;;20.94;40.51;97829.03;4454966;32;33674;-86
2022/09/28 10:04:22;;;;;;;;;;;;;;;20.25;41.47;97830.63;4468928;32;35160;-83
2022/09/28 10:06:52;;;;;;;;;;;;;;;20.80;41.01;97835.87;4454968;32;33427;-85
2022/09/28 10:09:25;;;;;;;;;;;;;;;20.48;41.36;97840.03;4454882;32;33805;-85
2022/09/28 10:11:55;;;;;;;;;;;;;;;20.17;41.74;97841.50;4454978;32;33470;-86
2022/09/28 10:14:23;;;;;;;;;;;;;;;21.06;39.12;97836.31;4468885;32;34243;-85
2022/09/28 10:16:52;;;;;;;;;;;;;;;20.83;40.17;97838.34;4468436;32;34218;-87
2022/09/28 10:19:21;;;;;;;;;;;;;;;21.35;40.04;97845.41;4454968;32;34303;-84
2022/09/28 10:21:52;;;;;;;;;;;;;;;21.23;39.54;97841.59;4454963;32;32664;-85
2022/09/28 10:24:22;;;;;;;;;;;;;;;21.49;39.23;97844.69;4468736;32;34214;-85
2022/09/28 10:26:49;;;;;;;;;;;;;;;21.14;39.65;97839.44;4454435;32;33803;-84
2022/09/28 10:29:20;;;;;;;;;;;;;;;21.27;39.96;97837.88;4468518;32;34015;-87
2022/09/28 10:31:48;;;;;;;;;;;;;;;21.98;38.17;97835.00;4468761;32;34289;-85
2022/09/28 10:34:18;;;;;;;;;;;;;;;21.59;39.16;97845.91;4468679;32;35216;-85
2022/09/28 10:36:49;;;;;;;;;;;;;;;21.26;40.39;97836.19;4469106;32;34110;-85
2022/09/28 10:39:22;;;;;;;;;;;;;;;21.15;39.25;97833.22;4468579;32;33879;-84
2022/09/28 10:41:49;;;;;;;;;;;;;;;20.12;41.69;97840.03;4454290;32;33604;-87
2022/09/28 10:44:17;;;;;;;;;;;;;;;20.85;39.86;97833.84;4468594;32;34407;-83
2022/09/28 10:46:45;;;;;;;;;;;;;;;20.78;40.94;97840.34;4454588;32;33258;-83
2022/09/28 10:49:14;;;;;;;;;;;;;;;20.75;40.14;97845.75;4454396;32;34066;-86
2022/09/28 10:51:42;;;;;;;;;;;;;;;21.28;38.59;97833.44;4454112;32;34058;-84
2022/09/28 10:54:18;;;;;;;;;;;;;;;21.17;39.17;97841.06;4468689;32;33682;-84
2022/09/28 10:56:46;;;;;;;;;;;;;;;21.38;38.56;97830.28;4468523;32;33549;-86
2022/09/28 10:59:23;;;;;;;;;;;;;;;22.07;37.41;97825.72;4468300;32;34151;-84
2022/09/28 11:01:54;;;;;;;;;;;;;;;22.41;36.89;97834.44;4468443;32;33707;-87
2022/09/28 11:04:23;;;;;;;;;;;;;;;22.41;36.73;97821.25;4468653;32;35044;-85
2022/09/28 11:06:50;;;;;;;;;;;;;;;21.71;38.44;97810.12;4453913;32;33266;-85
2022/09/28 11:09:30;;;;;;;;;;;;;;;21.09;39.20;97815.94;4454350;32;33864;-85
2022/09/28 11:11:59;;;;;;;;;;;;;;;21.15;38.86;97822.69;4454501;32;35256;-87
2022/09/28 11:14:27;;;;;;;;;;;;;;;21.63;38.82;97810.56;4454322;32;34776;-84
2022/09/28 11:17:31;;;;;;;;;;;;;;;21.82;38.04;97811.25;4454332;32;33512;-85
2022/09/28 11:20:00;;;;;;;;;;;;;;;21.99;39.09;97799.75;4404109;32;33894;-84
2022/09/28 11:22:29;;;;;;;;;;;;;;;21.24;38.59;97797.63;4455979;32;33777;-85
2022/09/28 11:25:14;;;;;;;;;;;;;;;21.73;38.27;97800.34;4468335;32;34965;-86
2022/09/28 11:27:53;;;;;;;;;;;;;;;21.30;38.97;97798.19;4468023;32;33569;-84
2022/09/28 11:30:30;;;;;;;;;;;;;;;21.00;39.37;97795.34;4467966;32;34729;-85
2022/09/28 11:33:02;;;;;;;;;;;;;;;20.61;40.66;97791.16;4468263;32;34418;-85
2022/09/28 11:35:41;;;;;;;;;;;;;;;21.49;38.92;97805.16;4468332;32;33426;-84
2022/09/28 11:38:15;;;;;;;;;;;;;;;22.12;38.06;97794.62;4454211;32;33931;-86
2022/09/28 11:40:55;;;;;;;;;;;;;;;22.13;37.38;97791.09;4468219;32;34422;-85
2022/09/28 11:43:23;;;;;;;;;;;;;;;21.77;38.32;97789.53;4453781;32;34849;-85
2022/09/28 11:45:54;;;;;;;;;;;;;;;21.79;38.02;97813.22;4468271;32;34517;-81
2022/09/28 11:48:22;;;;;;;;;;;;;;;21.26;38.80;97806.34;4454060;32;33452;-83
2022/09/28 11:50:55;;;;;;;;;;;;;;;21.23;39.30;97803.84;4454080;32;34101;-87
2022/09/28 11:53:29;;;;;;;;;;;;;;;20.26;40.17;97795.47;4454036;32;33855;-85
2022/09/28 11:56:10;;;;;;;;;;;;;;;21.34;39.21;97786.56;4467860;32;34434;-83
2022/09/28 11:59:07;;;;;;;;;;;;;;;21.39;38.93;97781.03;4453931;32;32987;-86
2022/09/28 12:01:49;;;;;;;;;;;;;;;21.26;40.23;97780.81;4455099;32;33803;-86
2022/09/28 12:04:19;;;;;;;;;;;;;;;21.15;37.94;97764.72;4454139;32;34896;-84
2022/09/28 12:06:50;;;;;;;;;;;;;;;21.33;39.44;97758.50;4468000;32;35624;-86
2022/09/28 12:09:23;;;;;;;;;;;;;;;21.22;37.63;97763.47;4468003;32;34358;-83
2022/09/28 12:11:53;;;;;;;;;;;;;;;21.52;36.81;97760.16;4453402;32;34159;-86
2022/09/28 12:14:28;;;;;;;;;;;;;;;22.09;37.75;97765.81;4454059;32;33728;-85
2022/09/28 12:17:09;;;;;;;;;;;;;;;21.52;37.20;97768.91;4453491;32;34463;-84
2022/09/28 12:19:38;;;;;;;;;;;;;;;21.25;37.89;97765.94;4453064;32;34211;-85
2022/09/28 12:22:15;;;;;;;;;;;;;;;22.04;37.21;97757.28;4467842;32;34026;-84
2022/09/28 12:24:46;;;;;;;;;;;;;;;21.59;37.07;97758.88;4453745;32;34188;-85
2022/09/28 12:27:19;;;;;;;;;;;;;;;21.19;38.60;97752.22;4453289;32;34428;-88
2022/09/28 12:29:50;;;;;;;;;;;;;;;20.99;38.70;97758.56;4453580;32;33554;-85
2022/09/28 12:32:37;;;;;;;;;;;;;;;21.58;39.41;97742.19;4453473;32;34625;-83
2022/09/28 12:35:12;;;;;;;;;;;;;;;21.18;39.33;97732.09;4453816;32;33873;-83
2022/09/28 12:37:45;;;;;;;;;;;;;;;22.04;38.25;97749.34;4453530;32;34471;-85
2022/09/28 12:40:28;;;;;;;;;;;;;;;22.44;37.51;97733.94;4453362;32;33665;-84
2022/09/28 12:43:03;;;;;;;;;;;;;;;22.41;37.56;97736.75;4467557;32;34858;-84
2022/09/28 12:45:46;;;;;;;;;;;;;;;21.68;38.16;97737.28;4453892;32;35180;-85
2022/09/28 12:48:35;;;;;;;;;;;;;;;21.46;38.97;97734.12;4467426;32;35019;-84
2022/09/28 12:51:06;;;;;;;;;;;;;;;22.23;38.21;97734.22;4467595;32;33081;-86
2022/09/28 12:53:33;;;;;;;;;;;;;;;21.18;38.91;97729.44;4453672;32;34328;-85
2022/09/28 12:56:02;;;;;;;;;;;;;;;21.56;38.35;97725.62;4453277;32;35127;-86
2022/09/28 12:58:39;;;;;;;;;;;;;;;21.80;39.29;97726.06;4440647;32;33911;-85
2022/09/28 13:01:18;;;;;;;;;;;;;;;21.82;38.29;97721.56;4467395;32;34075;-86
2022/09/28 13:03:46;;;;;;;;;;;;;;;21.87;38.90;97727.41;4467473;32;34082;-87
2022/09/28 13:06:16;;;;;;;;;;;;;;;22.38;38.21;97723.72;4467539;32;34245;-84
2022/09/28 13:09:02;;;;;;;;;;;;;;;22.25;38.74;97727.06;4467574;32;34438;-84
2022/09/28 13:11:42;;;;;;;;;;;;;;;22.26;38.06;97723.47;4467436;32;32907;-87
2022/09/28 13:14:15;;;;;;;;;;;;;;;22.57;37.00;97727.81;4467686;32;33852;-88
2022/09/28 13:17:02;;;;;;;;;;;;;;;22.30;36.60;97719.72;4467552;32;34161;-87
2022/09/28 13:19:35;;;;;;;;;;;;;;;22.42;36.66;97714.66;4453143;32;34359;-86